Time;durP1;ratioP1;P1;durP2;ratioP2;P2;SDS_P1;SDS_P2;PMS_P1;PMS_P2;Temp;Humidity;BMP_temperature;BMP_pressure;BME280_temperature;BME280_humidity;BME280_pressure;Samples;Min_cycle;Max_cycle;Signal;HPM_P1;HPM_P2
2022/05/09 00:03:35;;;;;;;10.27;6.00;;;;;;;;;;2082259;28;20204;-52
2022/05/09 00:04:36;;;;;;;11.05;5.35;;;;;;;;;;2073533;28;20158;-50
2022/05/09 00:05:37;;;;;;;8.05;5.47;;;;;;;;;;2082486;28;20529;-53
2022/05/09 00:06:37;;;;;;;12.18;5.78;;;;;;;;;;2082317;28;20181;-55
2022/05/09 00:07:37;;;;;;;9.30;5.20;;;;;;;;;;2082595;28;20183;-53
2022/05/09 00:08:38;;;;;;;15.90;5.50;;;;;;;;;;2074153;28;20169;-53
2022/05/09 00:09:39;;;;;;;11.38;5.32;;;;;;;;;;2073815;28;20173;-52
2022/05/09 00:10:40;;;;;;;10.25;5.85;;;;;;;;;;2073887;28;20168;-53
2022/05/09 00:11:40;;;;;;;8.55;5.10;;;;;;;;;;2074099;28;20181;-55
2022/05/09 00:12:40;;;;;;;7.70;4.60;;;;;;;;;;2083123;28;20254;-52
2022/05/09 00:13:41;;;;;;;10.10;5.63;;;;;;;;;;2083347;28;20172;-55
2022/05/09 00:14:42;;;;;;;9.38;5.47;;;;;;;;;;2082311;28;20200;-52
2022/05/09 00:15:42;;;;;;;10.18;5.10;;;;;;;;;;2074116;28;20161;-53
2022/05/09 00:16:43;;;;;;;13.15;6.38;;;;;;;;;;2074124;28;20177;-53
2022/05/09 00:17:45;;;;;;;10.13;5.38;;;;;;;;;;2073683;28;20244;-53
2022/05/09 00:18:47;;;;;;;8.80;5.53;;;;;;;;;;2074829;28;20165;-51
2022/05/09 00:19:47;;;;;;;9.60;5.60;;;;;;;;;;2083084;28;20160;-53
2022/05/09 00:20:49;;;;;;;7.13;5.15;;;;;;;;;;2073466;28;20172;-50
2022/05/09 00:21:50;;;;;;;14.13;6.10;;;;;;;;;;2075858;28;20169;-55
2022/05/09 00:22:52;;;;;;;13.60;6.03;;;;;;;;;;2082801;28;20180;-56
2022/05/09 00:23:52;;;;;;;12.02;5.43;;;;;;;;;;2082308;28;20647;-48
2022/05/09 00:24:52;;;;;;;10.07;5.65;;;;;;;;;;2083000;28;20176;-56
2022/05/09 00:25:52;;;;;;;10.10;5.68;;;;;;;;;;2082251;28;20716;-53
2022/05/09 00:26:53;;;;;;;9.40;5.45;;;;;;;;;;2077244;28;20173;-53
2022/05/09 00:27:53;;;;;;;9.48;5.25;;;;;;;;;;2083236;28;20183;-55
2022/05/09 00:28:54;;;;;;;10.40;5.60;;;;;;;;;;2083204;28;20180;-51
2022/05/09 00:29:54;;;;;;;8.38;4.97;;;;;;;;;;2083297;28;20176;-52
2022/05/09 00:30:54;;;;;;;9.63;5.38;;;;;;;;;;2082943;28;20188;-53
2022/05/09 00:31:56;;;;;;;11.45;5.32;;;;;;;;;;2082541;28;20171;-51
2022/05/09 00:32:56;;;;;;;13.38;5.85;;;;;;;;;;2083206;28;20665;-55
2022/05/09 00:33:57;;;;;;;10.23;5.53;;;;;;;;;;2083456;28;20176;-56
2022/05/09 00:34:57;;;;;;;12.82;5.90;;;;;;;;;;2083593;28;20173;-52
2022/05/09 00:35:57;;;;;;;13.45;5.68;;;;;;;;;;2083566;28;20235;-53
2022/05/09 00:36:58;;;;;;;14.65;5.88;;;;;;;;;;2082666;28;20200;-53
2022/05/09 00:37:59;;;;;;;11.50;6.47;;;;;;;;;;2083026;28;20172;-52
2022/05/09 00:39:01;;;;;;;9.50;5.80;;;;;;;;;;2073452;28;20189;-53
2022/05/09 00:40:01;;;;;;;9.00;5.40;;;;;;;;;;2065456;28;20181;-50
2022/05/09 00:42:21;;;;;;;8.38;5.25;;;;;;;;;;2074406;28;20172;-51
2022/05/09 00:43:29;;;;;;;9.13;5.18;;;;;;;;;;2074466;28;20208;-52
2022/05/09 00:44:29;;;;;;;12.85;6.05;;;;;;;;;;2074036;28;20169;-50
2022/05/09 00:45:29;;;;;;;8.65;5.60;;;;;;;;;;2076537;28;20185;-50
2022/05/09 00:46:30;;;;;;;13.40;5.93;;;;;;;;;;2076095;28;20192;-55
2022/05/09 00:47:30;;;;;;;8.10;5.93;;;;;;;;;;2082555;28;20207;-54
2022/05/09 00:48:32;;;;;;;14.23;6.30;;;;;;;;;;2075365;28;20177;-52
2022/05/09 00:49:45;;;;;;;11.20;6.35;;;;;;;;;;2074070;28;20177;-51
2022/05/09 00:50:45;;;;;;;8.00;5.35;;;;;;;;;;2075907;28;20528;-55
2022/05/09 00:51:47;;;;;;;8.93;5.72;;;;;;;;;;2074129;28;20185;-53
2022/05/09 00:52:55;;;;;;;10.23;6.03;;;;;;;;;;2067185;28;20192;-53
2022/05/09 00:53:57;;;;;;;10.27;6.47;;;;;;;;;;2074363;28;20184;-49
2022/05/09 00:55:11;;;;;;;9.93;5.82;;;;;;;;;;2081923;28;20169;-53
2022/05/09 00:56:16;;;;;;;14.45;6.55;;;;;;;;;;2082136;28;20249;-52
2022/05/09 00:57:20;;;;;;;9.75;5.70;;;;;;;;;;2082024;28;20184;-55
2022/05/09 00:58:23;;;;;;;13.02;6.22;;;;;;;;;;2081767;28;20646;-53
2022/05/09 00:59:23;;;;;;;9.88;6.05;;;;;;;;;;2081763;28;20694;-54
2022/05/09 01:00:24;;;;;;;10.50;5.78;;;;;;;;;;2072761;28;20263;-53
2022/05/09 01:01:24;;;;;;;10.68;6.07;;;;;;;;;;2064482;28;20193;-52
2022/05/09 01:02:25;;;;;;;13.07;6.50;;;;;;;;;;2072760;28;20232;-55
2022/05/09 01:03:28;;;;;;;13.23;6.35;;;;;;;;;;2081076;28;20176;-52
2022/05/09 01:04:32;;;;;;;12.35;5.78;;;;;;;;;;2081388;28;20242;-55
2022/05/09 01:05:32;;;;;;;13.90;6.47;;;;;;;;;;2081750;28;20176;-54
2022/05/09 01:06:33;;;;;;;9.25;6.10;;;;;;;;;;2081335;28;20218;-53
2022/05/09 01:07:33;;;;;;;12.80;6.90;;;;;;;;;;2072910;28;20177;-55
2022/05/09 01:08:33;;;;;;;11.60;6.32;;;;;;;;;;2072857;28;20743;-53
2022/05/09 01:09:33;;;;;;;10.75;6.15;;;;;;;;;;2081734;28;20176;-53
2022/05/09 01:10:37;;;;;;;6.53;5.88;;;;;;;;;;2081979;28;20211;-55
2022/05/09 01:11:40;;;;;;;9.90;6.38;;;;;;;;;;2072692;28;20207;-55
2022/05/09 01:12:42;;;;;;;13.43;6.22;;;;;;;;;;2073341;28;20207;-50
2022/05/09 01:13:44;;;;;;;14.30;6.45;;;;;;;;;;2081797;28;20649;-53
2022/05/09 01:14:45;;;;;;;13.15;6.60;;;;;;;;;;2081633;28;20171;-55
2022/05/09 01:15:46;;;;;;;10.43;6.30;;;;;;;;;;2072825;28;20177;-51
2022/05/09 01:16:47;;;;;;;10.52;6.15;;;;;;;;;;2073057;28;20172;-53
2022/05/09 01:17:50;;;;;;;12.27;6.75;;;;;;;;;;2072608;28;20247;-50
2022/05/09 01:18:52;;;;;;;9.60;6.28;;;;;;;;;;2081926;28;20544;-51
2022/05/09 01:19:54;;;;;;;16.83;6.93;;;;;;;;;;2081600;28;20180;-53
2022/05/09 01:20:55;;;;;;;12.13;7.20;;;;;;;;;;2082260;28;20644;-54
2022/05/09 01:21:56;;;;;;;10.52;6.47;;;;;;;;;;2082412;28;20164;-53
2022/05/09 01:22:58;;;;;;;10.32;6.70;;;;;;;;;;2082435;28;20273;-56
2022/05/09 01:23:59;;;;;;;13.98;6.47;;;;;;;;;;2082701;28;20161;-53
2022/05/09 01:25:03;;;;;;;15.87;7.47;;;;;;;;;;2082966;28;20188;-52
2022/05/09 01:26:04;;;;;;;10.95;6.68;;;;;;;;;;2082471;28;20269;-57
2022/05/09 01:27:04;;;;;;;10.60;6.30;;;;;;;;;;2083391;28;20259;-55
2022/05/09 01:28:04;;;;;;;13.75;6.50;;;;;;;;;;2074234;28;20232;-55
2022/05/09 01:29:08;;;;;;;12.02;6.35;;;;;;;;;;2065030;28;20179;-53
2022/05/09 01:30:13;;;;;;;12.70;6.38;;;;;;;;;;2077731;28;20176;-51
2022/05/09 01:31:16;;;;;;;10.35;7.00;;;;;;;;;;2081583;28;20769;-55
2022/05/09 01:32:19;;;;;;;9.95;6.60;;;;;;;;;;2082017;28;20544;-51
2022/05/09 01:33:30;;;;;;;11.80;6.85;;;;;;;;;;2082066;28;20184;-53
2022/05/09 01:34:30;;;;;;;11.52;7.32;;;;;;;;;;2081278;28;20731;-53
2022/05/09 01:35:45;;;;;;;13.90;7.75;;;;;;;;;;2081886;28;20169;-51
2022/05/09 01:36:49;;;;;;;12.00;6.90;;;;;;;;;;2081606;28;20180;-56
2022/05/09 01:37:59;;;;;;;13.38;6.72;;;;;;;;;;2081546;28;20246;-55
2022/05/09 01:39:01;;;;;;;11.18;6.47;;;;;;;;;;2081472;28;20172;-53
2022/05/09 01:40:01;;;;;;;12.27;6.88;;;;;;;;;;2081284;28;20195;-51
2022/05/09 01:41:01;;;;;;;14.63;6.57;;;;;;;;;;2081625;28;20601;-51
2022/05/09 01:42:06;;;;;;;12.57;7.78;;;;;;;;;;2073010;28;20199;-55
2022/05/09 01:43:06;;;;;;;13.00;6.70;;;;;;;;;;2073328;28;20189;-53
2022/05/09 01:44:07;;;;;;;12.30;6.18;;;;;;;;;;2081061;28;20184;-53
2022/05/09 01:45:08;;;;;;;13.52;6.80;;;;;;;;;;2081237;28;20549;-50
2022/05/09 01:46:11;;;;;;;13.35;6.40;;;;;;;;;;2081570;28;20248;-51
2022/05/09 01:49:49;;;;;;;13.93;6.70;;;;;;;;;;2072466;28;20598;-50
2022/05/09 01:50:49;;;;;;;8.15;6.70;;;;;;;;;;2072500;28;20177;-51
2022/05/09 01:51:49;;;;;;;12.18;7.18;;;;;;;;;;2072370;28;20172;-51
2022/05/09 01:52:50;;;;;;;12.35;7.38;;;;;;;;;;2072574;28;20196;-54
2022/05/09 01:53:52;;;;;;;10.13;7.38;;;;;;;;;;2081313;28;20175;-50
2022/05/09 01:54:53;;;;;;;10.38;6.25;;;;;;;;;;2080900;28;20241;-52
2022/05/09 01:55:53;;;;;;;15.25;7.18;;;;;;;;;;2081309;28;20188;-50
2022/05/09 01:56:53;;;;;;;11.48;7.20;;;;;;;;;;2081476;28;20172;-54
2022/05/09 01:57:53;;;;;;;10.82;6.82;;;;;;;;;;2081553;28;20210;-50
2022/05/09 01:58:54;;;;;;;10.68;6.95;;;;;;;;;;2081280;28;20195;-56
2022/05/09 01:59:54;;;;;;;13.52;6.97;;;;;;;;;;2081331;28;20657;-52
2022/05/09 02:00:54;;;;;;;11.20;7.17;;;;;;;;;;2081346;28;20184;-53
2022/05/09 02:01:56;;;;;;;9.77;6.68;;;;;;;;;;2080759;28;20179;-57
2022/05/09 02:02:57;;;;;;;11.27;6.83;;;;;;;;;;2073179;28;20230;-50
2022/05/09 02:03:57;;;;;;;11.90;6.80;;;;;;;;;;2075451;28;20204;-55
2022/05/09 02:04:57;;;;;;;12.90;6.70;;;;;;;;;;2080921;28;20540;-51
2022/05/09 02:05:58;;;;;;;10.77;6.82;;;;;;;;;;2081148;28;20208;-54
2022/05/09 02:06:58;;;;;;;9.77;7.30;;;;;;;;;;2081084;28;20535;-54
2022/05/09 02:07:59;;;;;;;10.13;6.87;;;;;;;;;;2081264;28;20263;-51
2022/05/09 02:08:59;;;;;;;11.17;7.43;;;;;;;;;;2079436;28;20247;-54
2022/05/09 02:10:03;;;;;;;17.55;7.05;;;;;;;;;;2072856;28;20195;-53
2022/05/09 02:11:03;;;;;;;11.57;6.78;;;;;;;;;;2080970;28;20602;-53
2022/05/09 02:12:04;;;;;;;11.30;6.85;;;;;;;;;;2079986;28;20259;-51
2022/05/09 02:13:04;;;;;;;13.03;7.73;;;;;;;;;;2080595;28;20218;-51
2022/05/09 02:14:05;;;;;;;11.90;7.53;;;;;;;;;;2080804;28;20172;-53
2022/05/09 02:15:07;;;;;;;13.73;6.53;;;;;;;;;;2081396;28;20575;-55
2022/05/09 02:16:09;;;;;;;9.57;7.38;;;;;;;;;;2081192;28;20184;-54
2022/05/09 02:17:11;;;;;;;12.43;7.70;;;;;;;;;;2081291;28;20222;-58
2022/05/09 02:18:11;;;;;;;17.85;7.28;;;;;;;;;;2081370;28;20180;-52
2022/05/09 02:19:11;;;;;;;9.13;6.85;;;;;;;;;;2072739;28;20205;-58
2022/05/09 02:20:12;;;;;;;13.43;7.53;;;;;;;;;;2073144;28;20240;-51
2022/05/09 02:21:13;;;;;;;12.93;8.55;;;;;;;;;;2081483;28;20172;-52
2022/05/09 02:22:14;;;;;;;14.73;7.87;;;;;;;;;;2081669;28;20266;-56
2022/05/09 02:23:14;;;;;;;13.55;7.28;;;;;;;;;;2081849;28;20188;-55
2022/05/09 02:24:14;;;;;;;11.27;7.25;;;;;;;;;;2064386;28;20184;-52
2022/05/09 02:25:35;;;;;;;12.15;7.40;;;;;;;;;;2064620;28;20566;-47
2022/05/09 02:26:37;;;;;;;11.57;7.43;;;;;;;;;;2073193;28;20544;-54
2022/05/09 02:27:37;;;;;;;13.55;7.60;;;;;;;;;;2073117;28;20181;-58
2022/05/09 02:28:38;;;;;;;12.82;7.32;;;;;;;;;;2073248;28;20589;-55
2022/05/09 02:29:39;;;;;;;15.70;7.67;;;;;;;;;;2073000;28;20584;-52
2022/05/09 02:30:40;;;;;;;15.60;8.20;;;;;;;;;;2076420;28;20199;-52
2022/05/09 02:31:40;;;;;;;15.93;8.23;;;;;;;;;;2064292;28;20166;-52
2022/05/09 02:32:40;;;;;;;11.77;8.10;;;;;;;;;;2064460;28;20197;-51
2022/05/09 02:33:41;;;;;;;12.82;7.72;;;;;;;;;;2081376;28;20160;-52
2022/05/09 02:34:41;;;;;;;12.50;8.25;;;;;;;;;;2080985;28;20160;-54
2022/05/09 02:35:41;;;;;;;13.07;7.85;;;;;;;;;;2081104;28;20242;-51
2022/05/09 02:36:44;;;;;;;13.15;7.75;;;;;;;;;;2081211;28;20180;-53
2022/05/09 02:37:44;;;;;;;16.07;8.03;;;;;;;;;;2081100;28;20259;-51
2022/05/09 02:38:45;;;;;;;16.90;7.80;;;;;;;;;;2081209;28;20172;-53
2022/05/09 02:39:46;;;;;;;12.18;7.47;;;;;;;;;;2080897;28;20180;-53
2022/05/09 02:40:46;;;;;;;15.82;7.85;;;;;;;;;;2081319;28;20755;-51
2022/05/09 02:41:46;;;;;;;15.25;7.85;;;;;;;;;;2072488;28;20173;-55
2022/05/09 02:42:47;;;;;;;11.23;7.88;;;;;;;;;;2072404;28;20244;-53
2022/05/09 02:43:47;;;;;;;15.53;8.33;;;;;;;;;;2064198;28;20169;-53
2022/05/09 02:44:49;;;;;;;10.68;7.85;;;;;;;;;;2072163;28;20190;-52
2022/05/09 02:45:50;;;;;;;11.93;7.10;;;;;;;;;;2080994;28;20180;-53
2022/05/09 02:46:50;;;;;;;21.77;7.70;;;;;;;;;;2081122;28;20606;-51
2022/05/09 02:47:51;;;;;;;13.65;7.32;;;;;;;;;;2081226;28;20226;-50
2022/05/09 02:48:51;;;;;;;12.10;7.13;;;;;;;;;;2081369;28;20206;-55
2022/05/09 02:49:51;;;;;;;12.10;7.97;;;;;;;;;;2081120;28;20180;-49
2022/05/09 02:50:51;;;;;;;14.10;8.07;;;;;;;;;;2081356;28;20563;-52
2022/05/09 02:51:52;;;;;;;10.45;7.63;;;;;;;;;;2081271;28;20204;-51
2022/05/09 02:52:53;;;;;;;14.23;7.20;;;;;;;;;;2081230;28;20188;-52
2022/05/09 02:53:56;;;;;;;17.02;9.43;;;;;;;;;;2081121;28;20665;-51
2022/05/09 02:54:57;;;;;;;18.35;9.85;;;;;;;;;;2081070;28;20244;-53
2022/05/09 02:55:57;;;;;;;19.90;10.90;;;;;;;;;;2080896;28;20214;-57
2022/05/09 02:56:58;;;;;;;15.17;9.10;;;;;;;;;;2081235;28;20181;-50
2022/05/09 02:58:03;;;;;;;20.27;12.05;;;;;;;;;;2081458;28;20178;-52
2022/05/09 02:59:03;;;;;;;16.90;9.43;;;;;;;;;;2081481;28;20172;-50
2022/05/09 03:00:05;;;;;;;21.52;11.65;;;;;;;;;;2081197;28;20604;-49
2022/05/09 03:01:06;;;;;;;22.35;13.57;;;;;;;;;;2081253;28;20231;-53
2022/05/09 03:02:08;;;;;;;17.25;9.98;;;;;;;;;;2081437;28;20203;-55
2022/05/09 03:04:40;;;;;;;21.15;12.02;;;;;;;;;;2080961;28;20167;-52
2022/05/09 03:05:43;;;;;;;20.40;11.40;;;;;;;;;;2081062;28;20153;-54
2022/05/09 03:06:43;;;;;;;15.20;10.40;;;;;;;;;;2081141;28;20658;-54
2022/05/09 03:07:44;;;;;;;17.50;10.60;;;;;;;;;;2081243;28;20180;-51
2022/05/09 03:08:44;;;;;;;23.27;11.50;;;;;;;;;;2081272;28;20227;-50
2022/05/09 03:09:46;;;;;;;25.27;11.63;;;;;;;;;;2081520;28;20555;-54
2022/05/09 03:10:46;;;;;;;16.88;10.48;;;;;;;;;;2081147;28;20176;-50
2022/05/09 03:11:46;;;;;;;15.70;9.73;;;;;;;;;;2080917;28;21774;-56
2022/05/09 03:12:46;;;;;;;19.92;10.15;;;;;;;;;;2080901;28;20285;-54
2022/05/09 03:13:47;;;;;;;16.93;9.53;;;;;;;;;;2072259;28;20720;-47
2022/05/09 03:14:47;;;;;;;16.70;9.23;;;;;;;;;;2071976;28;20265;-54
2022/05/09 03:15:49;;;;;;;14.07;9.80;;;;;;;;;;2081106;28;20192;-54
2022/05/09 03:16:49;;;;;;;16.40;9.03;;;;;;;;;;2081194;28;20180;-56
2022/05/09 03:17:49;;;;;;;20.05;11.07;;;;;;;;;;2080895;28;20215;-55
2022/05/09 03:18:53;;;;;;;20.70;11.67;;;;;;;;;;2081432;28;20175;-55
2022/05/09 03:19:53;;;;;;;17.13;9.37;;;;;;;;;;2081116;28;20191;-53
2022/05/09 03:20:54;;;;;;;13.97;9.20;;;;;;;;;;2081130;28;20311;-54
2022/05/09 03:21:54;;;;;;;16.70;8.63;;;;;;;;;;2080941;28;20528;-52
2022/05/09 03:22:54;;;;;;;17.13;8.40;;;;;;;;;;2080993;28;20188;-53
2022/05/09 03:23:55;;;;;;;14.43;8.20;;;;;;;;;;2081707;28;20199;-48
2022/05/09 03:24:55;;;;;;;21.00;8.68;;;;;;;;;;2073768;28;20280;-55
2022/05/09 03:25:55;;;;;;;13.43;9.37;;;;;;;;;;2073417;28;20185;-54
2022/05/09 03:26:56;;;;;;;16.57;8.53;;;;;;;;;;2082572;28;20172;-54
2022/05/09 03:27:56;;;;;;;20.87;9.20;;;;;;;;;;2082607;28;20203;-52
2022/05/09 03:28:57;;;;;;;17.37;8.80;;;;;;;;;;2082477;28;20218;-51
2022/05/09 03:29:57;;;;;;;9.90;7.75;;;;;;;;;;2082721;28;20200;-54
2022/05/09 03:30:59;;;;;;;11.88;7.60;;;;;;;;;;2082517;28;20651;-51
2022/05/09 03:32:00;;;;;;;13.80;8.52;;;;;;;;;;2073917;28;20200;-51
2022/05/09 03:33:00;;;;;;;14.45;8.82;;;;;;;;;;2074030;28;20185;-54
2022/05/09 03:34:01;;;;;;;14.83;8.97;;;;;;;;;;2072961;28;20219;-52
2022/05/09 03:35:02;;;;;;;21.15;9.02;;;;;;;;;;2073871;28;20557;-48
2022/05/09 03:36:02;;;;;;;14.15;8.77;;;;;;;;;;2082330;28;20637;-53
2022/05/09 03:37:03;;;;;;;13.90;8.45;;;;;;;;;;2082535;28;20263;-54
2022/05/09 03:38:03;;;;;;;17.40;9.73;;;;;;;;;;2073546;28;20185;-54
2022/05/09 03:39:04;;;;;;;11.52;9.00;;;;;;;;;;2073925;28;20184;-52
2022/05/09 03:40:05;;;;;;;12.83;9.03;;;;;;;;;;2082359;28;20653;-56
2022/05/09 03:41:05;;;;;;;14.57;9.17;;;;;;;;;;2082414;28;20185;-56
2022/05/09 03:42:08;;;;;;;16.60;8.93;;;;;;;;;;2082374;28;20212;-51
2022/05/09 03:43:10;;;;;;;16.13;9.20;;;;;;;;;;2082752;28;20180;-52
2022/05/09 03:44:10;;;;;;;12.83;8.60;;;;;;;;;;2073010;28;20207;-47
2022/05/09 03:45:11;;;;;;;19.87;8.93;;;;;;;;;;2073611;28;20180;-55
2022/05/09 03:46:11;;;;;;;16.50;9.07;;;;;;;;;;2082017;28;20289;-53
2022/05/09 03:47:11;;;;;;;13.93;9.50;;;;;;;;;;2082527;28;20247;-53
2022/05/09 03:48:11;;;;;;;15.03;8.30;;;;;;;;;;2082111;28;20165;-55
2022/05/09 03:49:12;;;;;;;10.80;8.53;;;;;;;;;;2076655;28;20181;-52
2022/05/09 03:50:13;;;;;;;13.63;8.83;;;;;;;;;;2071750;28;20260;-50
2022/05/09 03:51:17;;;;;;;16.33;8.85;;;;;;;;;;2081863;28;20251;-51
2022/05/09 03:52:18;;;;;;;17.43;9.50;;;;;;;;;;2082091;28;20176;-52
2022/05/09 03:53:18;;;;;;;15.37;9.30;;;;;;;;;;2082188;28;20575;-55
2022/05/09 03:54:18;;;;;;;17.48;9.32;;;;;;;;;;2081929;28;20534;-52
2022/05/09 03:55:18;;;;;;;12.70;8.60;;;;;;;;;;2082276;28;20237;-52
2022/05/09 03:56:19;;;;;;;15.53;9.17;;;;;;;;;;2082416;28;20176;-52
2022/05/09 03:57:19;;;;;;;15.53;9.17;;;;;;;;;;2082191;28;20267;-50
2022/05/09 03:58:20;;;;;;;12.17;8.37;;;;;;;;;;2082643;28;20184;-51
2022/05/09 03:59:20;;;;;;;12.33;9.10;;;;;;;;;;2082076;28;20653;-55
2022/05/09 04:00:22;;;;;;;13.53;9.10;;;;;;;;;;2082447;28;20219;-56
2022/05/09 04:01:22;;;;;;;16.40;9.40;;;;;;;;;;2082031;28;20191;-55
2022/05/09 04:02:23;;;;;;;15.13;8.67;;;;;;;;;;2072655;28;20208;-54
2022/05/09 04:03:23;;;;;;;13.03;9.13;;;;;;;;;;2057150;28;20220;-53
2022/05/09 04:04:23;;;;;;;15.87;9.77;;;;;;;;;;2064935;28;20181;-52
2022/05/09 04:05:27;;;;;;;12.77;9.07;;;;;;;;;;2083487;28;20274;-52
2022/05/09 04:06:27;;;;;;;11.85;8.77;;;;;;;;;;2074136;28;20278;-54
2022/05/09 04:07:28;;;;;;;15.57;9.13;;;;;;;;;;2086065;28;20171;-52
2022/05/09 04:08:28;;;;;;;12.17;9.03;;;;;;;;;;2087219;28;20176;-52
2022/05/09 04:09:29;;;;;;;13.60;9.03;;;;;;;;;;2089440;28;20175;-55
2022/05/09 04:10:30;;;;;;;18.57;10.10;;;;;;;;;;2090728;28;20306;-52
2022/05/09 04:11:31;;;;;;;15.60;9.90;;;;;;;;;;2090598;28;20199;-53
2022/05/09 04:12:31;;;;;;;18.40;8.80;;;;;;;;;;2083783;28;20184;-51
2022/05/09 04:13:31;;;;;;;14.90;8.93;;;;;;;;;;2082591;28;20172;-50
2022/05/09 04:17:10;;;;;;;13.27;9.52;;;;;;;;;;2078832;28;20171;-54
2022/05/09 04:18:11;;;;;;;13.70;8.87;;;;;;;;;;2082212;28;20184;-52
2022/05/09 04:19:11;;;;;;;13.97;9.50;;;;;;;;;;2082230;28;20184;-52
2022/05/09 04:20:11;;;;;;;15.23;9.53;;;;;;;;;;2082224;28;20259;-54
2022/05/09 04:21:15;;;;;;;15.53;9.20;;;;;;;;;;2082110;28;20310;-53
2022/05/09 04:22:15;;;;;;;12.57;9.73;;;;;;;;;;2081548;28;20583;-50
2022/05/09 04:23:16;;;;;;;14.73;8.73;;;;;;;;;;2082047;28;20246;-51
2022/05/09 04:24:16;;;;;;;14.88;9.45;;;;;;;;;;2081559;28;20167;-55
2022/05/09 04:25:17;;;;;;;17.95;10.35;;;;;;;;;;2082439;28;20169;-50
2022/05/09 04:26:17;;;;;;;14.63;9.90;;;;;;;;;;2082253;28;20657;-55
2022/05/09 04:27:18;;;;;;;17.77;10.77;;;;;;;;;;2082365;28;20160;-54
2022/05/09 04:28:19;;;;;;;16.45;9.98;;;;;;;;;;2081998;28;20529;-52
2022/05/09 04:29:25;;;;;;;15.90;10.48;;;;;;;;;;2082504;28;20267;-54
2022/05/09 04:30:26;;;;;;;17.17;10.73;;;;;;;;;;2073267;28;20208;-52
2022/05/09 04:31:28;;;;;;;15.02;9.60;;;;;;;;;;2073237;28;20626;-50
2022/05/09 04:32:28;;;;;;;15.90;10.17;;;;;;;;;;2082564;28;20552;-51
2022/05/09 04:33:28;;;;;;;15.95;10.35;;;;;;;;;;2084049;28;20168;-53
2022/05/09 04:34:29;;;;;;;18.63;10.60;;;;;;;;;;2083615;28;20187;-51
2022/05/09 04:35:29;;;;;;;20.07;10.80;;;;;;;;;;2073453;28;20177;-57
2022/05/09 04:36:30;;;;;;;16.17;10.35;;;;;;;;;;2073701;28;20278;-56
2022/05/09 04:37:32;;;;;;;18.33;10.97;;;;;;;;;;2079920;28;20177;-51
2022/05/09 04:38:32;;;;;;;17.87;10.60;;;;;;;;;;2074327;28;20681;-52
2022/05/09 04:39:33;;;;;;;16.42;10.68;;;;;;;;;;2074390;28;20172;-56
2022/05/09 04:40:35;;;;;;;16.02;10.00;;;;;;;;;;2066330;28;20204;-50
2022/05/09 04:41:36;;;;;;;18.38;9.98;;;;;;;;;;2058179;28;20175;-55
2022/05/09 04:42:36;;;;;;;15.30;10.77;;;;;;;;;;2066409;28;20197;-54
2022/05/09 04:43:37;;;;;;;16.67;10.13;;;;;;;;;;2075123;28;20169;-53
2022/05/09 04:44:37;;;;;;;13.50;9.50;;;;;;;;;;2065818;28;20693;-54
2022/05/09 04:45:37;;;;;;;18.17;11.43;;;;;;;;;;2066548;28;20213;-54
2022/05/09 04:46:39;;;;;;;19.27;10.70;;;;;;;;;;2074909;28;20197;-56
2022/05/09 04:47:40;;;;;;;16.20;9.85;;;;;;;;;;2065743;28;20178;-52
2022/05/09 04:48:42;;;;;;;16.43;11.27;;;;;;;;;;2066106;28;20647;-54
2022/05/09 04:49:42;;;;;;;15.80;10.32;;;;;;;;;;2078777;28;20227;-53
2022/05/09 04:50:42;;;;;;;13.60;9.90;;;;;;;;;;2083899;28;20218;-55
2022/05/09 04:51:43;;;;;;;15.67;9.70;;;;;;;;;;2083739;28;20171;-56
2022/05/09 04:52:43;;;;;;;16.33;10.60;;;;;;;;;;2084343;28;20231;-58
2022/05/09 04:53:43;;;;;;;12.30;9.18;;;;;;;;;;2084729;28;20361;-56
2022/05/09 04:54:44;;;;;;;11.70;9.40;;;;;;;;;;2083777;28;20325;-57
2022/05/09 04:55:45;;;;;;;18.77;9.70;;;;;;;;;;2082749;28;20165;-54
2022/05/09 04:56:45;;;;;;;21.43;10.33;;;;;;;;;;2083894;28;20208;-57
2022/05/09 04:57:47;;;;;;;13.50;10.20;;;;;;;;;;2083704;28;20283;-54
2022/05/09 04:58:47;;;;;;;14.45;10.20;;;;;;;;;;2077214;28;20184;-55
2022/05/09 04:59:48;;;;;;;20.27;9.73;;;;;;;;;;2079750;28;20177;-49
2022/05/09 05:00:48;;;;;;;15.68;9.60;;;;;;;;;;2088423;28;20190;-53
2022/05/09 05:01:52;;;;;;;14.63;10.23;;;;;;;;;;2089123;28;20172;-52
2022/05/09 05:02:52;;;;;;;19.75;11.10;;;;;;;;;;2089184;28;20665;-52
2022/05/09 05:03:53;;;;;;;17.73;11.02;;;;;;;;;;2088084;28;20166;-51
2022/05/09 05:04:53;;;;;;;14.30;9.80;;;;;;;;;;2088298;28;20258;-53
2022/05/09 05:05:53;;;;;;;14.77;9.65;;;;;;;;;;2088795;28;20168;-55
2022/05/09 05:06:53;;;;;;;16.08;9.70;;;;;;;;;;2088752;28;20218;-55
2022/05/09 05:07:54;;;;;;;16.77;9.77;;;;;;;;;;2089085;28;20199;-52
2022/05/09 05:08:54;;;;;;;14.98;9.90;;;;;;;;;;2087837;28;20198;-53
2022/05/09 05:09:54;;;;;;;15.00;10.13;;;;;;;;;;2088075;28;20215;-54
2022/05/09 05:10:55;;;;;;;18.60;10.57;;;;;;;;;;2087360;28;20257;-49
2022/05/09 05:11:59;;;;;;;17.63;10.50;;;;;;;;;;2088618;28;20240;-56
2022/05/09 05:13:00;;;;;;;16.55;10.05;;;;;;;;;;2092012;22;20665;-51
2022/05/09 05:14:00;;;;;;;15.50;9.43;;;;;;;;;;2077215;28;20226;-54
2022/05/09 05:15:02;;;;;;;19.05;10.20;;;;;;;;;;2076941;28;20182;-54
2022/05/09 05:16:02;;;;;;;15.32;10.20;;;;;;;;;;2078023;28;20165;-54
2022/05/09 05:17:03;;;;;;;16.58;9.77;;;;;;;;;;2081023;28;20186;-51
2022/05/09 05:18:04;;;;;;;19.13;10.57;;;;;;;;;;2077464;28;20183;-54
2022/05/09 05:19:04;;;;;;;17.05;10.02;;;;;;;;;;2076508;28;20184;-52
2022/05/09 05:20:09;;;;;;;17.85;11.32;;;;;;;;;;2081209;28;20226;-56
2022/05/09 05:21:10;;;;;;;17.20;10.20;;;;;;;;;;2069113;28;20232;-54
2022/05/09 05:22:12;;;;;;;16.33;10.10;;;;;;;;;;2069935;28;20180;-54
2022/05/09 05:23:12;;;;;;;20.50;10.75;;;;;;;;;;2075170;28;20185;-57
2022/05/09 05:24:13;;;;;;;29.25;11.40;;;;;;;;;;2081100;28;20242;-52
2022/05/09 05:25:14;;;;;;;46.15;13.93;;;;;;;;;;2081354;28;20168;-56
2022/05/09 05:26:14;;;;;;;38.05;12.00;;;;;;;;;;2081362;28;20200;-57
2022/05/09 05:27:15;;;;;;;23.15;10.40;;;;;;;;;;2081201;28;20588;-52
2022/05/09 05:28:16;;;;;;;16.27;9.63;;;;;;;;;;2081367;28;20164;-53
2022/05/09 05:29:17;;;;;;;81.30;14.73;;;;;;;;;;2081210;28;20179;-59
2022/05/09 05:30:18;;;;;;;16.38;9.40;;;;;;;;;;2074789;28;20173;-54
2022/05/09 05:31:18;;;;;;;18.83;9.10;;;;;;;;;;2070813;28;20177;-52
2022/05/09 05:32:20;;;;;;;15.55;9.38;;;;;;;;;;2073005;28;20168;-58
2022/05/09 05:33:21;;;;;;;21.25;9.63;;;;;;;;;;2072763;28;20196;-54
2022/05/09 05:34:21;;;;;;;17.58;8.52;;;;;;;;;;2072295;28;20173;-51
2022/05/09 05:35:23;;;;;;;19.63;9.35;;;;;;;;;;2073080;28;20171;-54
2022/05/09 05:36:24;;;;;;;15.05;9.30;;;;;;;;;;2072894;28;20235;-54
2022/05/09 05:37:24;;;;;;;15.65;8.98;;;;;;;;;;2064486;28;20181;-50
2022/05/09 05:38:24;;;;;;;15.13;9.88;;;;;;;;;;2064489;28;20181;-51
2022/05/09 05:39:24;;;;;;;16.52;9.25;;;;;;;;;;2073163;28;20710;-56
2022/05/09 05:40:25;;;;;;;15.40;9.00;;;;;;;;;;2073133;28;20173;-57
2022/05/09 05:41:25;;;;;;;13.20;8.88;;;;;;;;;;2073465;28;20172;-55
2022/05/09 05:42:26;;;;;;;14.82;8.43;;;;;;;;;;2072720;28;20616;-57
2022/05/09 05:43:26;;;;;;;25.80;10.57;;;;;;;;;;2064162;28;20291;-55
2022/05/09 05:44:27;;;;;;;23.27;10.45;;;;;;;;;;2063498;28;20197;-52
2022/05/09 05:45:28;;;;;;;54.78;21.75;;;;;;;;;;2072723;28;20553;-55
2022/05/09 05:46:28;;;;;;;19.70;11.95;;;;;;;;;;2072524;28;20200;-56
2022/05/09 05:47:28;;;;;;;15.55;8.55;;;;;;;;;;2072589;28;20169;-55
2022/05/09 05:48:28;;;;;;;23.90;12.18;;;;;;;;;;2072478;28;20271;-57
2022/05/09 05:49:29;;;;;;;48.13;14.60;;;;;;;;;;2073527;28;20260;-56
2022/05/09 05:50:29;;;;;;;25.38;14.07;;;;;;;;;;2065489;28;20794;-52
2022/05/09 05:51:29;;;;;;;20.90;12.55;;;;;;;;;;2064184;28;20530;-56
2022/05/09 05:52:31;;;;;;;246.70;40.65;;;;;;;;;;2072461;28;20165;-53
2022/05/09 05:53:31;;;;;;;106.57;22.15;;;;;;;;;;2072662;28;20280;-55
2022/05/09 05:54:33;;;;;;;555.75;78.40;;;;;;;;;;2072485;28;20168;-51
2022/05/09 05:55:34;;;;;;;152.80;28.17;;;;;;;;;;2072713;28;20200;-56
2022/05/09 05:56:37;;;;;;;395.85;49.05;;;;;;;;;;2072409;28;20184;-56
2022/05/09 05:57:38;;;;;;;532.92;76.07;;;;;;;;;;2073097;28;20222;-49
2022/05/09 05:58:39;;;;;;;1999.90;542.22;;;;;;;;;;2064355;28;20186;-62
2022/05/09 05:59:39;;;;;;;520.42;86.32;;;;;;;;;;2064312;28;20170;-57
2022/05/09 06:00:39;;;;;;;551.70;87.63;;;;;;;;;;2064471;28;20193;-60
2022/05/09 06:01:39;;;;;;;289.80;43.20;;;;;;;;;;2064822;28;20181;-62
2022/05/09 06:02:41;;;;;;;65.28;15.50;;;;;;;;;;2072963;28;20177;-62
2022/05/09 06:03:41;;;;;;;108.38;24.70;;;;;;;;;;2072856;28;20208;-55
2022/05/09 06:04:42;;;;;;;95.65;23.08;;;;;;;;;;2072912;28;20173;-56
2022/05/09 06:05:42;;;;;;;52.28;14.05;;;;;;;;;;2072422;28;20181;-54
2022/05/09 06:06:42;;;;;;;30.38;11.15;;;;;;;;;;2073252;28;20634;-55
2022/05/09 06:07:43;;;;;;;18.17;8.27;;;;;;;;;;2073444;28;20189;-53
2022/05/09 06:08:44;;;;;;;13.38;8.55;;;;;;;;;;2073041;28;20179;-54
2022/05/09 06:09:44;;;;;;;11.63;7.80;;;;;;;;;;2064429;28;20170;-51
2022/05/09 06:10:47;;;;;;;20.63;10.68;;;;;;;;;;2064881;28;20204;-51
2022/05/09 06:11:48;;;;;;;14.18;7.97;;;;;;;;;;2064809;28;20246;-54